Flight Track Log - Related Links

Times and Time Zones

All times are in EDT time to prevent confusion due to time zone crossing. See the NRL951 flight status page for this flight to view local times or setup timezone preferences in your user account.

Time Position Orientation Groundspeed Altitude Reporting Facility
EDT Latitude Longitude Course Direction KTS MPH feet Rate Location/Type
Thu 05:49:50 PM 47.8667 -77.3500 130° Southeast 350 403 15,000  Level Montreal Center
Thu 05:50:00 PM 47.8113 -77.2413 135° Southeast  Level FlightAware Approximate
Thu 05:50:50 PM 47.8000 -77.2500 135° Southeast 380 437 17,800  Level Montreal Center
Thu 05:51:00 PM 47.7463 -77.1436 135° Southeast  Level FlightAware Approximate
Thu 05:51:50 PM 47.7167 -77.1167 133° Southeast 370 426 20,000  Level Montreal Center
Thu 05:52:00 PM 47.6812 -77.0462 135° Southeast  Level FlightAware Approximate
Thu 05:52:50 PM 47.6500 -77.0167 135° Southeast 390 449 21,400  Level Montreal Center
Thu 05:53:00 PM 47.6160 -76.9489 130° Southeast  Level FlightAware Approximate
Thu 05:53:50 PM 47.5667 -76.8667 129° Southeast 410 472 23,500  Level Montreal Center
Thu 05:54:00 PM 47.5564 -76.8443 130° Southeast  Level FlightAware Approximate
Thu 05:54:50 PM 47.4833 -76.7667 141° Southeast 420 483 25,400  Level Montreal Center
Thu 05:55:00 PM 47.4967 -76.7399 130° Southeast  Level FlightAware Approximate
Thu 05:55:50 PM 47.4000 -76.6167 129° Southeast 430 495 26,700  Level Montreal Center
Thu 05:56:50 PM 47.3167 -76.4833 133° Southeast 450 518 28,200 1,150 Climbing Montreal Center
Thu 05:57:50 PM 47.2167 -76.3333 134° Southeast 470 541 29,000 400 Climbing Montreal Center
Thu 05:58:50 PM 47.1333 -76.2167 136° Southeast 460 529 29,000  Level Montreal Center
Thu 05:59:50 PM 47.0500 -76.0833 133° Southeast 460 529 29,000  Level Montreal Center
Thu 06:00:50 PM 46.9500 -75.9500 138° Southeast 450 518 29,000  Level Montreal Center
Thu 06:01:50 PM 46.8667 -75.8167 132° Southeast 450 518 29,000  Level Montreal Center
Thu 06:02:50 PM 46.7833 -75.6667 129° Southeast 460 529 29,000  Level Montreal Center
Thu 06:03:50 PM 46.7000 -75.5333 132° Southeast 460 529 29,000 -600 Level Montreal Center
Thu 06:04:50 PM 46.6167 -75.4000 132° Southeast 460 529 27,800 -1,850 Descending Montreal Center
Thu 06:05:50 PM 46.5333 -75.2667 132° Southeast 440 506 25,300 -2,750 Descending Montreal Center
Thu 06:06:50 PM 46.4500 -75.1667 140° Southeast 430 495 22,300 -3,250 Descending Montreal Center
Thu 06:07:50 PM 46.3500 -75.0667 145° Southeast 420 483 18,800 -3,050 Descending Montreal Center
Thu 06:08:50 PM 46.2500 -75.0000 155° Southeast 420 483 16,200 -2,600 Descending Montreal Center
Thu 06:09:50 PM 46.1500 -74.9000 145° Southeast 390 449 13,600 -2,100 Descending Montreal Center
Thu 06:10:50 PM 46.0833 -74.7833 129° Southeast 370 426 12,000 -1,400 Descending Montreal Center
Thu 06:11:50 PM 46.0333 -74.6667 122° Southeast 330 380 10,800 -1,400 Descending Montreal Center
Thu 06:12:50 PM 45.9833 -74.5667 126° Southeast 310 357 9,200 -1,600 Descending Montreal Center
Thu 06:13:50 PM 45.9333 -74.4667 126° Southeast 300 345 7,600 -1,500 Descending Montreal Center
Thu 06:14:50 PM 45.9000 -74.3833 120° Southeast 280 322 6,200 -1,350 Descending Montreal Center
Thu 06:15:50 PM 45.8833 -74.2833 103° East 270 311 4,900 -1,050 Descending Montreal Center
Thu 06:16:50 PM 45.8833 -74.1667 90° East 260 299 4,100 -450 Descending Montreal Center
Thu 06:17:50 PM 45.8667 -74.0667 103° East 270 311 4,000 -200 Descending Montreal Center
Thu 06:18:50 PM 45.8667 -73.9667 90° East 260 299 3,700 -500 Descending Montreal Center
Thu 06:19:50 PM 45.8500 -73.8667 103° East 260 299 3,000 -350 Descending Montreal Center
Thu 06:20:50 PM 45.8167 -73.8000 126° Southeast 240 276 3,000 -100 Level Montreal Center
Thu 06:21:50 PM 45.7833 -73.8333 215° Southwest 170 196 2,800 -500 Descending Montreal Center
Thu 06:22:50 PM 45.7333 -73.8833 215° Southwest 170 196 2,000 -800 Descending Montreal Center
Thu 06:23:50 PM 45.7167 -73.9333 244° Southwest 150 173 1,200 -800 Descending Montreal Center
Thu 06:24:50 PM 45.6833 -73.9833 226° Southwest 140 161 400 -800 Descending Montreal Center

Login

Don't have an account? Register now (free) for customized features, flight alerts, and more!